sensor_id;sensor_type;location;lat;lon;timestamp;P1;durP1;ratioP1;P2;durP2;ratioP2
7997;SDS011;4044;49.814;7.828;2023-07-13T00:01:42;3.97;;;2.67;;
7997;SDS011;4044;49.814;7.828;2023-07-13T00:04:08;2.55;;;2.25;;
7997;SDS011;4044;49.814;7.828;2023-07-13T00:06:34;3.65;;;2.22;;
7997;SDS011;4044;49.814;7.828;2023-07-13T00:09:00;2.92;;;2.50;;
7997;SDS011;4044;49.814;7.828;2023-07-13T00:11:26;2.88;;;2.58;;
7997;SDS011;4044;49.814;7.828;2023-07-13T00:13:52;4.35;;;2.63;;
7997;SDS011;4044;49.814;7.828;2023-07-13T00:16:18;2.28;;;2.15;;
7997;SDS011;4044;49.814;7.828;2023-07-13T00:18:44;2.42;;;2.22;;
7997;SDS011;4044;49.814;7.828;2023-07-13T00:21:10;2.55;;;2.35;;
7997;SDS011;4044;49.814;7.828;2023-07-13T00:23:37;2.75;;;2.53;;
7997;SDS011;4044;49.814;7.828;2023-07-13T00:26:06;4.15;;;2.60;;
7997;SDS011;4044;49.814;7.828;2023-07-13T00:28:33;3.92;;;2.60;;
7997;SDS011;4044;49.814;7.828;2023-07-13T00:30:58;2.97;;;2.40;;
7997;SDS011;4044;49.814;7.828;2023-07-13T00:33:24;4.65;;;2.90;;
7997;SDS011;4044;49.814;7.828;2023-07-13T00:35:53;2.85;;;2.22;;
7997;SDS011;4044;49.814;7.828;2023-07-13T00:38:19;2.55;;;2.35;;
7997;SDS011;4044;49.814;7.828;2023-07-13T00:40:45;2.80;;;2.60;;
7997;SDS011;4044;49.814;7.828;2023-07-13T00:43:12;2.50;;;2.25;;
7997;SDS011;4044;49.814;7.828;2023-07-13T00:48:08;3.75;;;2.47;;
7997;SDS011;4044;49.814;7.828;2023-07-13T00:50:49;3.58;;;2.70;;
7997;SDS011;4044;49.814;7.828;2023-07-13T00:53:18;3.33;;;2.47;;
7997;SDS011;4044;49.814;7.828;2023-07-13T00:55:45;4.03;;;2.47;;
7997;SDS011;4044;49.814;7.828;2023-07-13T00:58:13;2.70;;;2.50;;
7997;SDS011;4044;49.814;7.828;2023-07-13T01:00:39;4.00;;;2.67;;
7997;SDS011;4044;49.814;7.828;2023-07-13T01:03:05;3.63;;;2.65;;
7997;SDS011;4044;49.814;7.828;2023-07-13T01:05:32;3.45;;;2.70;;
7997;SDS011;4044;49.814;7.828;2023-07-13T01:07:59;4.43;;;2.72;;
7997;SDS011;4044;49.814;7.828;2023-07-13T01:10:26;3.33;;;2.88;;
7997;SDS011;4044;49.814;7.828;2023-07-13T01:12:52;3.50;;;2.90;;
7997;SDS011;4044;49.814;7.828;2023-07-13T01:18:10;3.03;;;2.60;;
7997;SDS011;4044;49.814;7.828;2023-07-13T01:20:39;2.97;;;2.70;;
7997;SDS011;4044;49.814;7.828;2023-07-13T01:23:05;2.80;;;2.40;;
7997;SDS011;4044;49.814;7.828;2023-07-13T01:25:36;3.17;;;2.50;;
7997;SDS011;4044;49.814;7.828;2023-07-13T01:28:03;2.87;;;2.67;;
7997;SDS011;4044;49.814;7.828;2023-07-13T01:30:36;3.77;;;2.70;;
7997;SDS011;4044;49.814;7.828;2023-07-13T01:33:05;2.73;;;2.47;;
7997;SDS011;4044;49.814;7.828;2023-07-13T01:35:34;3.10;;;2.90;;
7997;SDS011;4044;49.814;7.828;2023-07-13T01:38:00;3.77;;;2.90;;
7997;SDS011;4044;49.814;7.828;2023-07-13T01:40:26;3.63;;;3.23;;
7997;SDS011;4044;49.814;7.828;2023-07-13T01:42:53;3.33;;;2.80;;
7997;SDS011;4044;49.814;7.828;2023-07-13T01:45:18;4.73;;;3.20;;
7997;SDS011;4044;49.814;7.828;2023-07-13T01:47:44;4.43;;;2.70;;
7997;SDS011;4044;49.814;7.828;2023-07-13T01:50:09;3.33;;;2.77;;
7997;SDS011;4044;49.814;7.828;2023-07-13T01:52:35;3.03;;;2.73;;
7997;SDS011;4044;49.814;7.828;2023-07-13T01:55:00;3.37;;;3.07;;
7997;SDS011;4044;49.814;7.828;2023-07-13T01:57:27;4.43;;;3.10;;
7997;SDS011;4044;49.814;7.828;2023-07-13T01:59:52;3.67;;;3.17;;
7997;SDS011;4044;49.814;7.828;2023-07-13T02:02:18;4.07;;;3.13;;
7997;SDS011;4044;49.814;7.828;2023-07-13T02:04:44;3.57;;;3.13;;
7997;SDS011;4044;49.814;7.828;2023-07-13T02:07:10;3.40;;;2.77;;
7997;SDS011;4044;49.814;7.828;2023-07-13T02:09:35;3.03;;;2.70;;
7997;SDS011;4044;49.814;7.828;2023-07-13T02:12:01;3.70;;;3.40;;
7997;SDS011;4044;49.814;7.828;2023-07-13T02:14:26;3.20;;;2.90;;
7997;SDS011;4044;49.814;7.828;2023-07-13T02:16:52;3.33;;;3.00;;
7997;SDS011;4044;49.814;7.828;2023-07-13T02:19:17;4.23;;;3.23;;
7997;SDS011;4044;49.814;7.828;2023-07-13T02:21:43;5.10;;;3.00;;
7997;SDS011;4044;49.814;7.828;2023-07-13T02:24:08;4.00;;;3.30;;
7997;SDS011;4044;49.814;7.828;2023-07-13T02:26:34;3.53;;;3.20;;
7997;SDS011;4044;49.814;7.828;2023-07-13T02:28:59;4.43;;;3.30;;
7997;SDS011;4044;49.814;7.828;2023-07-13T02:31:25;4.57;;;3.70;;
7997;SDS011;4044;49.814;7.828;2023-07-13T02:33:52;4.80;;;3.33;;
7997;SDS011;4044;49.814;7.828;2023-07-13T02:36:17;3.53;;;3.20;;
7997;SDS011;4044;49.814;7.828;2023-07-13T02:38:43;3.10;;;2.80;;
7997;SDS011;4044;49.814;7.828;2023-07-13T02:41:09;4.33;;;3.37;;
7997;SDS011;4044;49.814;7.828;2023-07-13T02:43:37;3.67;;;3.17;;
7997;SDS011;4044;49.814;7.828;2023-07-13T02:46:03;3.43;;;3.10;;
7997;SDS011;4044;49.814;7.828;2023-07-13T02:48:34;3.70;;;3.40;;
7997;SDS011;4044;49.814;7.828;2023-07-13T02:51:01;4.20;;;3.23;;
7997;SDS011;4044;49.814;7.828;2023-07-13T02:53:27;4.47;;;3.73;;
7997;SDS011;4044;49.814;7.828;2023-07-13T02:55:52;3.77;;;3.47;;
7997;SDS011;4044;49.814;7.828;2023-07-13T02:58:18;3.43;;;3.00;;
7997;SDS011;4044;49.814;7.828;2023-07-13T03:00:44;5.67;;;3.77;;
7997;SDS011;4044;49.814;7.828;2023-07-13T03:03:11;3.70;;;3.40;;
7997;SDS011;4044;49.814;7.828;2023-07-13T03:05:41;6.10;;;3.83;;
7997;SDS011;4044;49.814;7.828;2023-07-13T03:08:08;4.07;;;3.67;;
7997;SDS011;4044;49.814;7.828;2023-07-13T03:10:34;4.03;;;3.70;;
7997;SDS011;4044;49.814;7.828;2023-07-13T03:13:00;6.43;;;3.80;;
7997;SDS011;4044;49.814;7.828;2023-07-13T03:15:26;5.47;;;3.80;;
7997;SDS011;4044;49.814;7.828;2023-07-13T03:17:52;4.00;;;3.70;;
7997;SDS011;4044;49.814;7.828;2023-07-13T03:20:17;3.87;;;3.53;;
7997;SDS011;4044;49.814;7.828;2023-07-13T03:22:43;4.27;;;3.87;;
7997;SDS011;4044;49.814;7.828;2023-07-13T03:25:09;5.13;;;3.80;;
7997;SDS011;4044;49.814;7.828;2023-07-13T03:27:35;4.10;;;3.70;;
7997;SDS011;4044;49.814;7.828;2023-07-13T03:30:01;3.93;;;3.60;;
7997;SDS011;4044;49.814;7.828;2023-07-13T03:32:28;4.63;;;4.00;;
7997;SDS011;4044;49.814;7.828;2023-07-13T03:34:53;3.70;;;3.40;;
7997;SDS011;4044;49.814;7.828;2023-07-13T03:37:19;4.27;;;3.60;;
7997;SDS011;4044;49.814;7.828;2023-07-13T03:39:44;4.43;;;3.47;;
7997;SDS011;4044;49.814;7.828;2023-07-13T03:42:10;4.13;;;3.73;;
7997;SDS011;4044;49.814;7.828;2023-07-13T03:44:36;4.50;;;3.63;;
7997;SDS011;4044;49.814;7.828;2023-07-13T03:47:01;3.80;;;3.40;;
7997;SDS011;4044;49.814;7.828;2023-07-13T03:49:27;4.20;;;3.53;;
7997;SDS011;4044;49.814;7.828;2023-07-13T03:51:52;3.63;;;3.33;;
7997;SDS011;4044;49.814;7.828;2023-07-13T03:54:18;5.20;;;3.90;;
7997;SDS011;4044;49.814;7.828;2023-07-13T03:56:43;5.30;;;3.60;;
7997;SDS011;4044;49.814;7.828;2023-07-13T03:59:09;5.30;;;3.60;;
7997;SDS011;4044;49.814;7.828;2023-07-13T04:01:34;3.60;;;3.37;;
7997;SDS011;4044;49.814;7.828;2023-07-13T04:04:00;3.60;;;3.30;;
7997;SDS011;4044;49.814;7.828;2023-07-13T04:06:26;3.80;;;3.50;;
7997;SDS011;4044;49.814;7.828;2023-07-13T04:08:55;3.83;;;3.50;;
7997;SDS011;4044;49.814;7.828;2023-07-13T04:11:23;4.27;;;3.53;;
7997;SDS011;4044;49.814;7.828;2023-07-13T04:13:50;6.00;;;3.40;;
7997;SDS011;4044;49.814;7.828;2023-07-13T04:16:16;3.60;;;3.30;;
7997;SDS011;4044;49.814;7.828;2023-07-13T04:18:44;3.73;;;3.10;;
7997;SDS011;4044;49.814;7.828;2023-07-13T04:21:10;3.30;;;3.10;;
7997;SDS011;4044;49.814;7.828;2023-07-13T04:23:36;3.60;;;3.30;;
7997;SDS011;4044;49.814;7.828;2023-07-13T04:26:02;4.10;;;3.63;;
7997;SDS011;4044;49.814;7.828;2023-07-13T04:28:28;4.07;;;2.85;;
7997;SDS011;4044;49.814;7.828;2023-07-13T04:30:55;3.72;;;3.00;;
7997;SDS011;4044;49.814;7.828;2023-07-13T04:33:21;3.50;;;3.20;;
7997;SDS011;4044;49.814;7.828;2023-07-13T04:35:47;3.25;;;3.05;;
7997;SDS011;4044;49.814;7.828;2023-07-13T04:38:14;3.60;;;3.30;;
7997;SDS011;4044;49.814;7.828;2023-07-13T04:40:42;3.70;;;3.30;;
7997;SDS011;4044;49.814;7.828;2023-07-13T04:43:10;4.13;;;3.05;;
7997;SDS011;4044;49.814;7.828;2023-07-13T04:45:36;3.38;;;3.05;;
7997;SDS011;4044;49.814;7.828;2023-07-13T04:48:01;4.05;;;2.92;;
7997;SDS011;4044;49.814;7.828;2023-07-13T04:50:27;4.55;;;3.17;;
7997;SDS011;4044;49.814;7.828;2023-07-13T04:52:52;3.72;;;3.38;;
7997;SDS011;4044;49.814;7.828;2023-07-13T04:55:18;2.63;;;2.47;;
7997;SDS011;4044;49.814;7.828;2023-07-13T04:57:44;2.88;;;2.67;;
7997;SDS011;4044;49.814;7.828;2023-07-13T05:00:11;3.35;;;3.03;;
7997;SDS011;4044;49.814;7.828;2023-07-13T05:02:37;4.72;;;3.17;;
7997;SDS011;4044;49.814;7.828;2023-07-13T05:05:04;6.78;;;3.15;;
7997;SDS011;4044;49.814;7.828;2023-07-13T05:07:30;4.28;;;3.40;;
7997;SDS011;4044;49.814;7.828;2023-07-13T05:09:57;3.97;;;3.00;;
7997;SDS011;4044;49.814;7.828;2023-07-13T05:12:24;3.75;;;3.40;;
7997;SDS011;4044;49.814;7.828;2023-07-13T05:14:50;3.67;;;3.10;;
7997;SDS011;4044;49.814;7.828;2023-07-13T05:17:15;4.25;;;3.10;;
7997;SDS011;4044;49.814;7.828;2023-07-13T05:19:41;3.63;;;3.28;;
7997;SDS011;4044;49.814;7.828;2023-07-13T05:22:06;3.78;;;2.70;;
7997;SDS011;4044;49.814;7.828;2023-07-13T05:24:32;3.00;;;2.72;;
7997;SDS011;4044;49.814;7.828;2023-07-13T05:26:58;4.15;;;2.80;;
7997;SDS011;4044;49.814;7.828;2023-07-13T05:29:24;3.67;;;2.95;;
7997;SDS011;4044;49.814;7.828;2023-07-13T05:31:50;3.72;;;2.70;;
7997;SDS011;4044;49.814;7.828;2023-07-13T05:34:16;3.80;;;2.90;;
7997;SDS011;4044;49.814;7.828;2023-07-13T05:36:42;4.30;;;2.60;;
7997;SDS011;4044;49.814;7.828;2023-07-13T05:39:07;2.45;;;2.33;;
7997;SDS011;4044;49.814;7.828;2023-07-13T05:41:33;3.47;;;2.90;;
7997;SDS011;4044;49.814;7.828;2023-07-13T05:43:58;2.60;;;2.40;;
7997;SDS011;4044;49.814;7.828;2023-07-13T05:46:24;3.50;;;2.95;;
7997;SDS011;4044;49.814;7.828;2023-07-13T05:48:50;3.55;;;2.47;;
7997;SDS011;4044;49.814;7.828;2023-07-13T05:51:15;4.20;;;2.45;;
7997;SDS011;4044;49.814;7.828;2023-07-13T05:53:41;3.47;;;2.53;;
7997;SDS011;4044;49.814;7.828;2023-07-13T05:56:06;3.33;;;2.50;;
7997;SDS011;4044;49.814;7.828;2023-07-13T05:58:32;3.33;;;2.47;;
7997;SDS011;4044;49.814;7.828;2023-07-13T06:01:01;2.33;;;2.13;;
7997;SDS011;4044;49.814;7.828;2023-07-13T06:03:29;2.70;;;2.35;;
7997;SDS011;4044;49.814;7.828;2023-07-13T06:05:55;3.90;;;2.60;;
7997;SDS011;4044;49.814;7.828;2023-07-13T06:08:20;3.38;;;2.50;;
7997;SDS011;4044;49.814;7.828;2023-07-13T06:10:46;2.97;;;2.25;;
7997;SDS011;4044;49.814;7.828;2023-07-13T06:13:11;2.35;;;2.13;;
7997;SDS011;4044;49.814;7.828;2023-07-13T06:15:37;4.75;;;2.08;;
7997;SDS011;4044;49.814;7.828;2023-07-13T06:18:02;4.20;;;1.70;;
7997;SDS011;4044;49.814;7.828;2023-07-13T06:20:28;3.38;;;1.90;;
7997;SDS011;4044;49.814;7.828;2023-07-13T06:22:54;1.88;;;1.73;;
7997;SDS011;4044;49.814;7.828;2023-07-13T06:25:19;2.00;;;1.65;;
7997;SDS011;4044;49.814;7.828;2023-07-13T06:27:45;2.30;;;1.67;;
7997;SDS011;4044;49.814;7.828;2023-07-13T06:30:11;3.78;;;1.70;;
7997;SDS011;4044;49.814;7.828;2023-07-13T06:32:37;1.83;;;1.63;;
7997;SDS011;4044;49.814;7.828;2023-07-13T06:35:02;1.77;;;1.60;;
7997;SDS011;4044;49.814;7.828;2023-07-13T06:37:28;3.83;;;1.98;;
7997;SDS011;4044;49.814;7.828;2023-07-13T06:39:54;3.28;;;1.40;;
7997;SDS011;4044;49.814;7.828;2023-07-13T06:42:19;2.15;;;1.40;;
7997;SDS011;4044;49.814;7.828;2023-07-13T06:44:45;2.50;;;1.80;;
7997;SDS011;4044;49.814;7.828;2023-07-13T06:47:11;3.03;;;1.70;;
7997;SDS011;4044;49.814;7.828;2023-07-13T06:49:36;6.05;;;1.90;;
7997;SDS011;4044;49.814;7.828;2023-07-13T06:52:02;3.70;;;1.65;;
7997;SDS011;4044;49.814;7.828;2023-07-13T06:54:27;1.33;;;1.20;;
7997;SDS011;4044;49.814;7.828;2023-07-13T06:56:53;4.97;;;1.80;;
7997;SDS011;4044;49.814;7.828;2023-07-13T06:59:18;3.30;;;1.50;;
7997;SDS011;4044;49.814;7.828;2023-07-13T07:01:44;3.08;;;1.60;;
7997;SDS011;4044;49.814;7.828;2023-07-13T07:04:09;1.88;;;1.63;;
7997;SDS011;4044;49.814;7.828;2023-07-13T07:06:35;1.73;;;1.60;;
7997;SDS011;4044;49.814;7.828;2023-07-13T07:09:01;3.05;;;1.52;;
7997;SDS011;4044;49.814;7.828;2023-07-13T07:11:26;1.48;;;1.33;;
7997;SDS011;4044;49.814;7.828;2023-07-13T07:13:52;2.42;;;1.45;;
7997;SDS011;4044;49.814;7.828;2023-07-13T07:16:19;3.92;;;1.73;;
7997;SDS011;4044;49.814;7.828;2023-07-13T07:18:45;2.13;;;1.30;;
7997;SDS011;4044;49.814;7.828;2023-07-13T07:21:11;2.40;;;1.50;;
7997;SDS011;4044;49.814;7.828;2023-07-13T07:23:37;1.70;;;1.52;;
7997;SDS011;4044;49.814;7.828;2023-07-13T07:26:03;2.88;;;1.30;;
7997;SDS011;4044;49.814;7.828;2023-07-13T07:28:29;1.88;;;1.50;;
7997;SDS011;4044;49.814;7.828;2023-07-13T07:30:55;2.28;;;1.63;;
7997;SDS011;4044;49.814;7.828;2023-07-13T07:33:22;1.42;;;1.30;;
7997;SDS011;4044;49.814;7.828;2023-07-13T07:35:48;3.03;;;1.17;;
7997;SDS011;4044;49.814;7.828;2023-07-13T07:38:14;2.45;;;1.30;;
7997;SDS011;4044;49.814;7.828;2023-07-13T07:40:40;3.42;;;1.40;;
7997;SDS011;4044;49.814;7.828;2023-07-13T07:43:06;3.95;;;1.63;;
7997;SDS011;4044;49.814;7.828;2023-07-13T07:45:34;2.40;;;1.50;;
7997;SDS011;4044;49.814;7.828;2023-07-13T07:47:59;3.38;;;1.50;;
7997;SDS011;4044;49.814;7.828;2023-07-13T07:50:25;1.67;;;1.20;;
7997;SDS011;4044;49.814;7.828;2023-07-13T07:52:52;1.20;;;1.10;;
7997;SDS011;4044;49.814;7.828;2023-07-13T07:55:18;3.30;;;1.50;;
7997;SDS011;4044;49.814;7.828;2023-07-13T07:57:43;3.17;;;1.50;;
7997;SDS011;4044;49.814;7.828;2023-07-13T08:00:09;2.60;;;1.27;;
7997;SDS011;4044;49.814;7.828;2023-07-13T08:02:35;1.45;;;1.17;;
7997;SDS011;4044;49.814;7.828;2023-07-13T08:05:01;1.67;;;1.23;;
7997;SDS011;4044;49.814;7.828;2023-07-13T08:07:26;1.52;;;1.27;;
7997;SDS011;4044;49.814;7.828;2023-07-13T08:09:52;1.95;;;1.20;;
7997;SDS011;4044;49.814;7.828;2023-07-13T08:12:18;2.22;;;1.40;;
7997;SDS011;4044;49.814;7.828;2023-07-13T08:14:44;1.42;;;1.17;;
7997;SDS011;4044;49.814;7.828;2023-07-13T08:17:09;3.25;;;1.20;;
7997;SDS011;4044;49.814;7.828;2023-07-13T08:19:35;2.90;;;1.30;;
7997;SDS011;4044;49.814;7.828;2023-07-13T08:22:00;2.10;;;1.42;;
7997;SDS011;4044;49.814;7.828;2023-07-13T08:24:26;4.43;;;1.42;;
7997;SDS011;4044;49.814;7.828;2023-07-13T08:26:51;1.77;;;1.27;;
7997;SDS011;4044;49.814;7.828;2023-07-13T08:29:17;1.80;;;1.10;;
7997;SDS011;4044;49.814;7.828;2023-07-13T08:31:43;3.03;;;1.10;;
7997;SDS011;4044;49.814;7.828;2023-07-13T08:34:08;3.38;;;1.63;;
7997;SDS011;4044;49.814;7.828;2023-07-13T08:36:34;2.40;;;1.33;;
7997;SDS011;4044;49.814;7.828;2023-07-13T08:38:59;3.65;;;1.33;;
7997;SDS011;4044;49.814;7.828;2023-07-13T08:41:25;1.90;;;1.30;;
7997;SDS011;4044;49.814;7.828;2023-07-13T08:43:53;2.05;;;1.25;;
7997;SDS011;4044;49.814;7.828;2023-07-13T08:48:58;3.20;;;1.10;;
7997;SDS011;4044;49.814;7.828;2023-07-13T08:51:30;2.38;;;1.30;;
7997;SDS011;4044;49.814;7.828;2023-07-13T08:54:01;1.98;;;1.25;;
7997;SDS011;4044;49.814;7.828;2023-07-13T08:56:35;2.53;;;1.13;;
7997;SDS011;4044;49.814;7.828;2023-07-13T08:59:14;1.65;;;1.13;;
7997;SDS011;4044;49.814;7.828;2023-07-13T09:04:22;2.25;;;1.30;;
7997;SDS011;4044;49.814;7.828;2023-07-13T09:11:59;2.35;;;1.25;;
7997;SDS011;4044;49.814;7.828;2023-07-13T09:14:48;1.50;;;1.30;;
7997;SDS011;4044;49.814;7.828;2023-07-13T09:17:21;2.28;;;1.30;;
7997;SDS011;4044;49.814;7.828;2023-07-13T09:19:55;3.45;;;1.20;;
7997;SDS011;4044;49.814;7.828;2023-07-13T09:22:31;2.60;;;1.17;;
7997;SDS011;4044;49.814;7.828;2023-07-13T09:27:56;4.07;;;1.40;;
7997;SDS011;4044;49.814;7.828;2023-07-13T09:30:30;1.63;;;1.13;;
7997;SDS011;4044;49.814;7.828;2023-07-13T09:33:18;2.00;;;1.40;;
7997;SDS011;4044;49.814;7.828;2023-07-13T09:35:44;3.17;;;1.20;;
7997;SDS011;4044;49.814;7.828;2023-07-13T09:38:11;1.33;;;1.02;;
7997;SDS011;4044;49.814;7.828;2023-07-13T09:43:38;1.55;;;1.40;;
7997;SDS011;4044;49.814;7.828;2023-07-13T09:46:03;1.40;;;1.30;;
7997;SDS011;4044;49.814;7.828;2023-07-13T09:48:34;1.48;;;1.13;;
7997;SDS011;4044;49.814;7.828;2023-07-13T09:51:07;1.88;;;1.00;;
7997;SDS011;4044;49.814;7.828;2023-07-13T09:53:40;1.50;;;1.20;;
7997;SDS011;4044;49.814;7.828;2023-07-13T09:56:24;1.58;;;1.20;;
7997;SDS011;4044;49.814;7.828;2023-07-13T09:58:54;3.47;;;1.30;;
7997;SDS011;4044;49.814;7.828;2023-07-13T10:01:33;1.98;;;1.42;;
7997;SDS011;4044;49.814;7.828;2023-07-13T10:04:10;1.73;;;1.02;;
7997;SDS011;4044;49.814;7.828;2023-07-13T10:06:38;1.38;;;1.20;;
7997;SDS011;4044;49.814;7.828;2023-07-13T10:09:06;2.88;;;1.33;;
7997;SDS011;4044;49.814;7.828;2023-07-13T10:11:34;1.20;;;1.20;;
7997;SDS011;4044;49.814;7.828;2023-07-13T10:14:01;2.03;;;1.33;;
7997;SDS011;4044;49.814;7.828;2023-07-13T10:16:41;3.65;;;1.42;;
7997;SDS011;4044;49.814;7.828;2023-07-13T10:19:16;2.30;;;1.38;;
7997;SDS011;4044;49.814;7.828;2023-07-13T10:21:57;1.58;;;1.25;;
7997;SDS011;4044;49.814;7.828;2023-07-13T10:24:26;3.72;;;1.42;;
7997;SDS011;4044;49.814;7.828;2023-07-13T10:29:29;1.75;;;1.38;;
7997;SDS011;4044;49.814;7.828;2023-07-13T10:32:00;2.38;;;1.30;;
7997;SDS011;4044;49.814;7.828;2023-07-13T10:34:26;2.03;;;1.20;;
7997;SDS011;4044;49.814;7.828;2023-07-13T10:36:52;1.20;;;1.10;;
7997;SDS011;4044;49.814;7.828;2023-07-13T10:39:19;2.10;;;1.40;;
7997;SDS011;4044;49.814;7.828;2023-07-13T10:41:50;3.30;;;1.48;;
7997;SDS011;4044;49.814;7.828;2023-07-13T10:44:26;1.90;;;1.30;;
7997;SDS011;4044;49.814;7.828;2023-07-13T10:46:57;1.92;;;1.48;;
7997;SDS011;4044;49.814;7.828;2023-07-13T10:49:26;1.38;;;1.23;;
7997;SDS011;4044;49.814;7.828;2023-07-13T10:51:54;1.25;;;1.20;;
7997;SDS011;4044;49.814;7.828;2023-07-13T10:57:06;2.88;;;1.30;;
7997;SDS011;4044;49.814;7.828;2023-07-13T10:59:42;2.75;;;1.27;;
7997;SDS011;4044;49.814;7.828;2023-07-13T11:02:20;1.63;;;1.50;;
7997;SDS011;4044;49.814;7.828;2023-07-13T11:04:51;1.67;;;1.15;;
7997;SDS011;4044;49.814;7.828;2023-07-13T11:07:19;2.53;;;1.50;;
7997;SDS011;4044;49.814;7.828;2023-07-13T11:09:58;2.47;;;1.40;;
7997;SDS011;4044;49.814;7.828;2023-07-13T11:15:14;2.10;;;1.20;;
7997;SDS011;4044;49.814;7.828;2023-07-13T11:17:53;2.03;;;1.50;;
7997;SDS011;4044;49.814;7.828;2023-07-13T11:20:38;1.55;;;1.30;;
7997;SDS011;4044;49.814;7.828;2023-07-13T11:25:42;1.63;;;1.52;;
7997;SDS011;4044;49.814;7.828;2023-07-13T11:30:41;1.83;;;1.40;;
7997;SDS011;4044;49.814;7.828;2023-07-13T11:35:42;2.88;;;1.50;;
7997;SDS011;4044;49.814;7.828;2023-07-13T11:38:22;1.75;;;1.55;;
7997;SDS011;4044;49.814;7.828;2023-07-13T11:40:55;1.75;;;1.30;;
7997;SDS011;4044;49.814;7.828;2023-07-13T11:43:23;1.50;;;1.40;;
7997;SDS011;4044;49.814;7.828;2023-07-13T11:45:49;1.38;;;1.33;;
7997;SDS011;4044;49.814;7.828;2023-07-13T11:48:23;2.20;;;1.63;;
7997;SDS011;4044;49.814;7.828;2023-07-13T11:50:59;2.13;;;1.58;;
7997;SDS011;4044;49.814;7.828;2023-07-13T11:53:29;2.38;;;1.60;;
7997;SDS011;4044;49.814;7.828;2023-07-13T11:56:01;3.45;;;1.27;;
7997;SDS011;4044;49.814;7.828;2023-07-13T11:58:27;2.53;;;1.50;;
7997;SDS011;4044;49.814;7.828;2023-07-13T12:00:53;2.35;;;1.70;;
7997;SDS011;4044;49.814;7.828;2023-07-13T12:03:22;2.25;;;1.35;;
7997;SDS011;4044;49.814;7.828;2023-07-13T12:06:03;1.70;;;1.35;;
7997;SDS011;4044;49.814;7.828;2023-07-13T12:08:39;2.78;;;1.30;;
7997;SDS011;4044;49.814;7.828;2023-07-13T12:11:09;1.35;;;1.25;;
7997;SDS011;4044;49.814;7.828;2023-07-13T12:13:43;2.97;;;1.63;;
7997;SDS011;4044;49.814;7.828;2023-07-13T12:16:25;2.22;;;1.70;;
7997;SDS011;4044;49.814;7.828;2023-07-13T12:18:54;2.15;;;1.50;;
7997;SDS011;4044;49.814;7.828;2023-07-13T12:21:22;3.88;;;1.35;;
7997;SDS011;4044;49.814;7.828;2023-07-13T12:23:59;1.30;;;1.20;;
7997;SDS011;4044;49.814;7.828;2023-07-13T12:26:29;2.50;;;1.30;;
7997;SDS011;4044;49.814;7.828;2023-07-13T12:28:55;2.42;;;1.40;;
7997;SDS011;4044;49.814;7.828;2023-07-13T12:31:25;3.88;;;1.50;;
7997;SDS011;4044;49.814;7.828;2023-07-13T12:34:01;1.13;;;1.02;;
7997;SDS011;4044;49.814;7.828;2023-07-13T12:36:33;1.35;;;1.25;;
7997;SDS011;4044;49.814;7.828;2023-07-13T12:39:01;2.03;;;1.52;;
7997;SDS011;4044;49.814;7.828;2023-07-13T12:41:35;1.55;;;1.42;;
7997;SDS011;4044;49.814;7.828;2023-07-13T12:44:00;1.83;;;1.40;;
7997;SDS011;4044;49.814;7.828;2023-07-13T12:46:26;1.65;;;1.15;;
7997;SDS011;4044;49.814;7.828;2023-07-13T12:48:54;2.50;;;1.42;;
7997;SDS011;4044;49.814;7.828;2023-07-13T12:51:26;1.85;;;1.60;;
7997;SDS011;4044;49.814;7.828;2023-07-13T12:53:57;2.10;;;1.40;;
7997;SDS011;4044;49.814;7.828;2023-07-13T12:56:32;1.35;;;1.25;;
7997;SDS011;4044;49.814;7.828;2023-07-13T12:59:00;3.58;;;1.40;;
7997;SDS011;4044;49.814;7.828;2023-07-13T13:01:28;1.63;;;1.23;;
7997;SDS011;4044;49.814;7.828;2023-07-13T13:03:57;1.63;;;1.40;;
7997;SDS011;4044;49.814;7.828;2023-07-13T13:06:29;1.42;;;1.30;;
7997;SDS011;4044;49.814;7.828;2023-07-13T13:08:55;5.63;;;1.30;;
7997;SDS011;4044;49.814;7.828;2023-07-13T13:11:26;2.10;;;1.42;;
7997;SDS011;4044;49.814;7.828;2023-07-13T13:13:54;1.45;;;1.10;;
7997;SDS011;4044;49.814;7.828;2023-07-13T13:18:45;1.45;;;1.35;;
7997;SDS011;4044;49.814;7.828;2023-07-13T13:21:11;1.30;;;1.20;;
7997;SDS011;4044;49.814;7.828;2023-07-13T13:23:37;2.22;;;1.27;;
7997;SDS011;4044;49.814;7.828;2023-07-13T13:26:02;2.17;;;1.20;;
7997;SDS011;4044;49.814;7.828;2023-07-13T13:28:31;3.08;;;1.42;;
7997;SDS011;4044;49.814;7.828;2023-07-13T13:30:57;2.28;;;1.27;;
7997;SDS011;4044;49.814;7.828;2023-07-13T13:33:23;2.15;;;1.38;;
7997;SDS011;4044;49.814;7.828;2023-07-13T13:35:48;2.25;;;1.20;;
7997;SDS011;4044;49.814;7.828;2023-07-13T13:38:15;1.75;;;1.20;;
7997;SDS011;4044;49.814;7.828;2023-07-13T13:40:51;1.90;;;1.45;;
7997;SDS011;4044;49.814;7.828;2023-07-13T13:43:17;2.22;;;1.15;;
7997;SDS011;4044;49.814;7.828;2023-07-13T13:45:50;1.67;;;1.00;;
7997;SDS011;4044;49.814;7.828;2023-07-13T13:48:17;1.63;;;1.25;;
7997;SDS011;4044;49.814;7.828;2023-07-13T13:50:44;3.17;;;1.20;;
7997;SDS011;4044;49.814;7.828;2023-07-13T13:53:11;1.77;;;1.40;;
7997;SDS011;4044;49.814;7.828;2023-07-13T13:55:40;1.40;;;1.20;;
7997;SDS011;4044;49.814;7.828;2023-07-13T13:58:07;2.20;;;1.23;;
7997;SDS011;4044;49.814;7.828;2023-07-13T14:00:34;1.30;;;1.20;;
7997;SDS011;4044;49.814;7.828;2023-07-13T14:03:00;3.78;;;1.60;;
7997;SDS011;4044;49.814;7.828;2023-07-13T14:05:26;2.80;;;1.40;;
7997;SDS011;4044;49.814;7.828;2023-07-13T14:07:52;1.40;;;1.30;;
7997;SDS011;4044;49.814;7.828;2023-07-13T14:10:19;2.40;;;1.30;;
7997;SDS011;4044;49.814;7.828;2023-07-13T14:12:45;1.02;;;1.02;;
7997;SDS011;4044;49.814;7.828;2023-07-13T14:15:26;2.42;;;1.30;;
7997;SDS011;4044;49.814;7.828;2023-07-13T14:17:53;1.67;;;1.13;;
7997;SDS011;4044;49.814;7.828;2023-07-13T14:20:20;1.10;;;1.10;;
7997;SDS011;4044;49.814;7.828;2023-07-13T14:22:48;1.40;;;1.30;;
7997;SDS011;4044;49.814;7.828;2023-07-13T14:25:15;2.33;;;1.23;;
7997;SDS011;4044;49.814;7.828;2023-07-13T14:27:42;1.60;;;1.05;;
7997;SDS011;4044;49.814;7.828;2023-07-13T14:30:15;1.20;;;1.20;;
7997;SDS011;4044;49.814;7.828;2023-07-13T14:32:42;1.40;;;1.27;;
7997;SDS011;4044;49.814;7.828;2023-07-13T14:35:12;1.52;;;1.40;;
7997;SDS011;4044;49.814;7.828;2023-07-13T14:37:39;1.73;;;1.30;;
7997;SDS011;4044;49.814;7.828;2023-07-13T14:40:39;1.50;;;1.30;;
7997;SDS011;4044;49.814;7.828;2023-07-13T14:42:58;1.52;;;1.30;;
7997;SDS011;4044;49.814;7.828;2023-07-13T14:45:23;5.05;;;1.45;;
7997;SDS011;4044;49.814;7.828;2023-07-13T14:47:50;2.25;;;1.30;;
7997;SDS011;4044;49.814;7.828;2023-07-13T14:50:17;2.20;;;1.38;;
7997;SDS011;4044;49.814;7.828;2023-07-13T14:52:44;2.92;;;1.20;;
7997;SDS011;4044;49.814;7.828;2023-07-13T14:55:11;1.60;;;1.50;;
7997;SDS011;4044;49.814;7.828;2023-07-13T14:57:41;3.97;;;1.40;;
7997;SDS011;4044;49.814;7.828;2023-07-13T15:02:40;2.92;;;1.13;;
7997;SDS011;4044;49.814;7.828;2023-07-13T15:05:16;1.35;;;1.23;;
7997;SDS011;4044;49.814;7.828;2023-07-13T15:07:45;1.13;;;1.13;;
7997;SDS011;4044;49.814;7.828;2023-07-13T15:10:15;1.75;;;1.42;;
7997;SDS011;4044;49.814;7.828;2023-07-13T15:12:43;1.65;;;1.55;;
7997;SDS011;4044;49.814;7.828;2023-07-13T15:15:09;1.20;;;1.10;;
7997;SDS011;4044;49.814;7.828;2023-07-13T15:17:36;2.38;;;1.20;;
7997;SDS011;4044;49.814;7.828;2023-07-13T15:20:11;1.60;;;1.13;;
7997;SDS011;4044;49.814;7.828;2023-07-13T15:22:49;3.17;;;1.58;;
7997;SDS011;4044;49.814;7.828;2023-07-13T15:25:17;1.52;;;1.40;;
7997;SDS011;4044;49.814;7.828;2023-07-13T15:27:44;2.58;;;1.58;;
7997;SDS011;4044;49.814;7.828;2023-07-13T15:30:10;1.92;;;1.40;;
7997;SDS011;4044;49.814;7.828;2023-07-13T15:32:36;2.53;;;1.60;;
7997;SDS011;4044;49.814;7.828;2023-07-13T15:35:02;1.50;;;1.38;;
7997;SDS011;4044;49.814;7.828;2023-07-13T15:37:27;1.85;;;1.30;;
7997;SDS011;4044;49.814;7.828;2023-07-13T15:39:54;2.63;;;1.40;;
7997;SDS011;4044;49.814;7.828;2023-07-13T15:42:20;1.88;;;1.35;;
7997;SDS011;4044;49.814;7.828;2023-07-13T15:44:46;1.58;;;1.33;;
7997;SDS011;4044;49.814;7.828;2023-07-13T15:47:13;1.42;;;1.33;;
7997;SDS011;4044;49.814;7.828;2023-07-13T15:49:40;1.77;;;1.10;;
7997;SDS011;4044;49.814;7.828;2023-07-13T15:52:24;1.52;;;1.40;;
7997;SDS011;4044;49.814;7.828;2023-07-13T15:54:50;2.35;;;1.40;;
7997;SDS011;4044;49.814;7.828;2023-07-13T15:57:16;1.75;;;1.50;;
7997;SDS011;4044;49.814;7.828;2023-07-13T15:59:42;1.40;;;1.30;;
7997;SDS011;4044;49.814;7.828;2023-07-13T16:02:18;1.15;;;1.10;;